Saturday, December 15, 2018, 10:53 PM EST
Back to Local

KLNS, Lancaster Airport

Location: Lititz, PA, United States Lat: 40.117
Local Time: 10:53 PM EST ( 3:53 GMT) Lon: -76.3
Time Zone: US/Eastern Elev: 403 ft

Show me the last for .
Show Decoded

2018-12-15 21:53 METAR KLNS 160253Z 06012KT 8SM -RA OVC024 09/04 A3001 RMK AO2 SLP162 P0004 60012
                 T00890044 58016 =
2018-12-15 21:15 METAR KLNS 160215Z 06012KT 8SM -RA BKN024 OVC036 09/05 A3001 RMK AO2 P0001
                 T00940050 =
2018-12-15 21:05 METAR KLNS 160205Z 06011KT 8SM -RA SCT024 BKN038 OVC060 09/06 A3002 RMK AO2
                 P0000 T00890056 =
2018-12-15 20:53 METAR KLNS 160153Z 05010KT 9SM -RA BKN023 BKN038 OVC055 09/06 A3003 RMK AO2
                 SLP169 P0003 T00940056 =
2018-12-15 19:53 METAR KLNS 160053Z 04007KT 10SM -RA BKN021 10/07 A3005 RMK AO2 RAB2359 SLP178
                 P0005 T01000067 =
2018-12-15 18:53 METAR KLNS 152353Z 07012KT 10SM BKN020 OVC075 11/08 A3006 RMK AO2 RAB05E52
                 SLP178 P0001 60002 T01060078 10117 20106 53000 =
2018-12-15 18:39 METAR KLNS 152339Z 06013G18KT 9SM -RA BKN019 BKN028 OVC080 11/08 A3004 RMK AO2
                 RAB05 P0001 T01110078 =
2018-12-15 18:31 METAR KLNS 152331Z 06014KT 9SM -RA SCT019 BKN040 OVC080 11/07 A3004 RMK AO2
                 RAB05 P0001 T01110072 =
2018-12-15 17:53 METAR KLNS 152253Z 05007KT 10SM BKN027 OVC035 11/08 A3004 RMK AO2 SLP175
                 T01110083 =
2018-12-15 17:01 METAR KLNS 152201Z 09009KT 10SM FEW024 OVC028 11/08 A3002 RMK AO2 T01110083 =
2018-12-15 16:53 METAR KLNS 152153Z 11006KT 10SM FEW024 OVC030 11/08 A3003 RMK AO2 SLP168
                 T01060083 =
2018-12-15 16:32 METAR KLNS 152132Z 06006KT 10SM SCT022 OVC030 11/08 A3001 RMK AO2 T01060083 =
2018-12-15 15:53 METAR KLNS 152053Z 09004KT 10SM OVC023 11/08 A3005 RMK AO2 SLP178 60001
                 T01110083 55008 =
2018-12-15 15:40 METAR KLNS 152040Z 05005KT 10SM BKN023 OVC100 11/08 A3003 RMK AO2 T01110083 =
2018-12-15 15:14 METAR KLNS 152014Z 07010KT 10SM SCT021 BKN033 OVC100 11/08 A2999 RMK AO2
                 T01110083 =
2018-12-15 14:53 METAR KLNS 151953Z 05012G17KT 10SM OVC020 12/08 A3000 RMK AO2 RAE03 SLP158 P0000
                 T01170083 =
2018-12-15 14:05 METAR KLNS 151905Z 06011KT 10SM BKN021 BKN038 OVC100 12/09 A3004 RMK AO2 RAE03
                 P0000 T01170094 =
2018-12-15 13:53 METAR KLNS 151853Z 04009KT 8SM -RA SCT022 BKN038 OVC100 12/09 A3005 RMK AO2
                 SLP176 P0001 T01170094 =
2018-12-15 13:20 METAR KLNS 151820Z 09006KT 6SM -RA BR SCT023 BKN040 OVC100 11/09 A3007 RMK AO2
                 P0001 T01110094 =
2018-12-15 12:53 METAR KLNS 151753Z 06010KT 5SM -RA BR BKN019 OVC023 11/09 A3008 RMK AO2 SLP186
                 P0001 60003 T01110094 10111 20078 58013 =
2018-12-15 12:26 METAR KLNS 151726Z 06010KT 6SM -RA BR OVC015 11/09 A3009 RMK AO2 P0000 T01110094
                 =
2018-12-15 11:53 METAR KLNS 151653Z 06006KT 5SM -RA BR OVC014 11/09 A3009 RMK AO2 RAB51 SLP191
                 P0000 T01060089 =
2018-12-15 10:53 METAR KLNS 151553Z 07007KT 5SM BR OVC011 10/09 A3011 RMK AO2 SLP196 T01000089 =
2018-12-15 10:12 METAR KLNS 151512Z 05008KT 4SM BR SCT006 OVC014 09/08 A3011 RMK AO2 T00940083 =
2018-12-15 09:53 METAR KLNS 151453Z 04009KT 3SM BR BKN007 OVC012 09/08 A3012 RMK AO2 CIG 005V010
                 SLP199 60002 T00940083 51004 =
2018-12-15 09:29 METAR KLNS 151429Z 06005KT 2 1/2SM BR BKN008 OVC013 09/08 A3012 RMK AO2 CIG
                 005V009 T00940083 =
2018-12-15 09:02 METAR KLNS 151402Z 08004KT 2 1/2SM BR SCT005 OVC011 09/08 A3011 RMK AO2
                 T00890083 =
2018-12-15 08:53 METAR KLNS 151353Z 08005KT 2 1/2SM BR BKN004 OVC011 09/08 A3012 RMK AO2 RAE43
                 CIG 004V008 SLP200 P0001 T00890078 =
2018-12-15 07:53 METAR KLNS 151253Z 05009KT 2SM -RA BR OVC004 08/07 A3012 RMK AO2 RAB20 SLP201
                 P0001 T00830072 =
2018-12-15 07:44 METAR KLNS 151244Z 03007KT 2 1/2SM -RA BR OVC004 08/07 A3012 RMK AO2 RAB20 P0000
                 T00830072 =
2018-12-15 07:03 METAR KLNS 151203Z 03009KT 2 1/2SM BR OVC006 08/07 A3011 RMK AO2 T00830072 =
2018-12-15 06:53 METAR KLNS 151153Z COR 06004KT 2 1/2SM BR OVC005 08/07 A3010 RMK AO2 RAB34E52
                 SLP196 P0000 60009 70024 T00780067 10078 20067 56011 =
2018-12-15 06:33 METAR KLNS 151133Z 04004KT 3SM BR OVC005 08/07 A3011 RMK AO2 T00780067 =
2018-12-15 05:53 METAR KLNS 151053Z 00000KT 2 1/2SM BR OVC006 07/06 A3012 RMK AO2 RAE13 SLP201
                 P0001 T00720061 =
2018-12-15 04:53 METAR KLNS 150953Z AUTO 04006KT 4SM -RA BR OVC007 07/06 A3014 RMK AO2 SLP207
                 P0000 T00720061 =
2018-12-15 04:31 METAR KLNS 150931Z AUTO 05004KT 3SM -RA BR OVC007 07/06 A3015 RMK AO2 P0000
                 T00720061 =
2018-12-15 04:13 METAR KLNS 150913Z AUTO 06004KT 2 1/2SM -RA BR OVC007 07/06 A3015 RMK AO2 P0000
                 T00670061 =
2018-12-15 03:53 METAR KLNS 150853Z AUTO 03003KT 3SM -RA BR OVC008 07/06 A3017 RMK AO2 SLP217
                 P0002 60008 T00720061 58012 =
2018-12-15 02:53 METAR KLNS 150753Z AUTO 00000KT 4SM -RA BR OVC009 07/06 A3019 RMK AO2 SLP225
                 P0004 T00720056 =
2018-12-15 02:51 METAR KLNS 150751Z AUTO 00000KT 4SM -RA BR OVC009 07/06 A3019 RMK AO2 P0004 =
2018-12-15 01:53 METAR KLNS 150653Z AUTO 00000KT 5SM -RA BR OVC010 07/06 A3020 RMK AO2 SLP228
                 P0002 T00670061 =
2018-12-15 00:53 METAR KLNS 150553Z AUTO 00000KT 7SM -RA OVC012 07/06 A3021 RMK AO2 SLP230 P0003
                 60014 T00720061 10078 20072 56020 =
2018-12-15 00:01 METAR KLNS 150501Z AUTO 00000KT 3SM -RA BR OVC014 07/07 A3021 RMK AO2 P0000
                 T00720067 =
2018-12-14 23:53 METAR KLNS 150453Z AUTO 00000KT 3SM -RA BR OVC015 07/07 A3022 RMK AO2 SLP234
                 P0002 T00720067 400830011 =
2018-12-14 23:40 METAR KLNS 150440Z AUTO 01005KT 3SM -RA BR OVC015 08/07 A3022 RMK AO2 P0002
                 T00780067 =
2018-12-14 23:29 METAR KLNS 150429Z AUTO 01004KT 2SM -RA BR FEW010 OVC017 07/07 A3022 RMK AO2
                 P0001 T00720067 =
2018-12-14 23:11 METAR KLNS 150411Z AUTO 00000KT 1/2SM -RA FG SCT011 OVC019 07/07 A3023 RMK AO2
                 P0001 T00720067 =
2018-12-14 22:58 METAR KLNS 150358Z AUTO 00000KT 1/4SM -RA FG BKN011 BKN022 OVC028 07/07 A3024
                 RMK AO2 P0000 T00720067 =

Support USWX by starting your Amazon purchase here.